sensor_id;sensor_type;location;lat;lon;timestamp;P1;durP1;ratioP1;P2;durP2;ratioP2
67140;SDS011;54058;52.010;5.546;2023-07-02T00:00:57;15.10;;;4.70;;
67140;SDS011;54058;52.010;5.546;2023-07-02T00:03:24;14.98;;;4.47;;
67140;SDS011;54058;52.010;5.546;2023-07-02T00:05:50;14.50;;;4.87;;
67140;SDS011;54058;52.010;5.546;2023-07-02T00:08:19;15.40;;;5.00;;
67140;SDS011;54058;52.010;5.546;2023-07-02T00:10:47;18.33;;;5.40;;
67140;SDS011;54058;52.010;5.546;2023-07-02T00:13:16;15.73;;;6.03;;
67140;SDS011;54058;52.010;5.546;2023-07-02T00:15:42;14.25;;;4.95;;
67140;SDS011;54058;52.010;5.546;2023-07-02T00:18:07;10.00;;;4.05;;
67140;SDS011;54058;52.010;5.546;2023-07-02T00:20:33;8.45;;;3.92;;
67140;SDS011;54058;52.010;5.546;2023-07-02T00:23:02;9.55;;;4.40;;
67140;SDS011;54058;52.010;5.546;2023-07-02T00:25:28;15.80;;;5.20;;
67140;SDS011;54058;52.010;5.546;2023-07-02T00:27:54;12.05;;;4.93;;
67140;SDS011;54058;52.010;5.546;2023-07-02T00:30:20;8.90;;;4.13;;
67140;SDS011;54058;52.010;5.546;2023-07-02T00:32:45;10.20;;;4.35;;
67140;SDS011;54058;52.010;5.546;2023-07-02T00:35:11;5.13;;;3.28;;
67140;SDS011;54058;52.010;5.546;2023-07-02T00:37:37;8.93;;;4.10;;
67140;SDS011;54058;52.010;5.546;2023-07-02T00:40:02;8.13;;;3.83;;
67140;SDS011;54058;52.010;5.546;2023-07-02T00:42:28;6.75;;;3.35;;
67140;SDS011;54058;52.010;5.546;2023-07-02T00:44:55;12.27;;;4.28;;
67140;SDS011;54058;52.010;5.546;2023-07-02T00:47:22;10.98;;;4.03;;
67140;SDS011;54058;52.010;5.546;2023-07-02T00:49:49;9.07;;;4.00;;
67140;SDS011;54058;52.010;5.546;2023-07-02T00:52:15;14.20;;;4.47;;
67140;SDS011;54058;52.010;5.546;2023-07-02T00:54:45;12.43;;;4.53;;
67140;SDS011;54058;52.010;5.546;2023-07-02T00:57:10;12.32;;;4.43;;
67140;SDS011;54058;52.010;5.546;2023-07-02T00:59:36;10.40;;;4.07;;
67140;SDS011;54058;52.010;5.546;2023-07-02T01:02:03;8.38;;;4.60;;
67140;SDS011;54058;52.010;5.546;2023-07-02T01:04:30;9.48;;;4.07;;
67140;SDS011;54058;52.010;5.546;2023-07-02T01:06:56;12.40;;;4.37;;
67140;SDS011;54058;52.010;5.546;2023-07-02T01:09:22;9.15;;;4.15;;
67140;SDS011;54058;52.010;5.546;2023-07-02T01:12:01;10.73;;;4.60;;
67140;SDS011;54058;52.010;5.546;2023-07-02T01:14:33;10.93;;;4.35;;
67140;SDS011;54058;52.010;5.546;2023-07-02T01:17:03;11.23;;;4.30;;
67140;SDS011;54058;52.010;5.546;2023-07-02T01:22:25;12.55;;;4.63;;
67140;SDS011;54058;52.010;5.546;2023-07-02T01:24:51;14.05;;;4.43;;
67140;SDS011;54058;52.010;5.546;2023-07-02T01:27:18;12.73;;;4.67;;
67140;SDS011;54058;52.010;5.546;2023-07-02T01:29:44;13.10;;;4.50;;
67140;SDS011;54058;52.010;5.546;2023-07-02T01:32:12;11.40;;;4.85;;
67140;SDS011;54058;52.010;5.546;2023-07-02T01:34:38;10.85;;;4.03;;
67140;SDS011;54058;52.010;5.546;2023-07-02T01:37:04;13.60;;;4.35;;
67140;SDS011;54058;52.010;5.546;2023-07-02T01:39:30;12.52;;;4.10;;
67140;SDS011;54058;52.010;5.546;2023-07-02T01:42:07;9.23;;;4.53;;
67140;SDS011;54058;52.010;5.546;2023-07-02T01:44:37;13.40;;;4.55;;
67140;SDS011;54058;52.010;5.546;2023-07-02T01:47:03;13.80;;;4.70;;
67140;SDS011;54058;52.010;5.546;2023-07-02T01:49:29;8.52;;;3.70;;
67140;SDS011;54058;52.010;5.546;2023-07-02T01:51:55;12.38;;;4.55;;
67140;SDS011;54058;52.010;5.546;2023-07-02T01:54:22;11.10;;;4.57;;
67140;SDS011;54058;52.010;5.546;2023-07-02T01:56:48;12.40;;;4.53;;
67140;SDS011;54058;52.010;5.546;2023-07-02T01:59:14;7.15;;;4.03;;
67140;SDS011;54058;52.010;5.546;2023-07-02T02:01:42;18.52;;;4.72;;
67140;SDS011;54058;52.010;5.546;2023-07-02T02:04:08;10.70;;;4.15;;
67140;SDS011;54058;52.010;5.546;2023-07-02T02:06:34;11.27;;;4.78;;
67140;SDS011;54058;52.010;5.546;2023-07-02T02:09:01;9.70;;;3.97;;
67140;SDS011;54058;52.010;5.546;2023-07-02T02:11:29;10.05;;;4.90;;
67140;SDS011;54058;52.010;5.546;2023-07-02T02:13:55;13.30;;;4.40;;
67140;SDS011;54058;52.010;5.546;2023-07-02T02:16:22;10.57;;;4.40;;
67140;SDS011;54058;52.010;5.546;2023-07-02T02:18:47;14.07;;;4.57;;
67140;SDS011;54058;52.010;5.546;2023-07-02T02:21:16;10.00;;;4.60;;
67140;SDS011;54058;52.010;5.546;2023-07-02T02:23:42;9.27;;;4.25;;
67140;SDS011;54058;52.010;5.546;2023-07-02T02:26:08;10.85;;;3.65;;
67140;SDS011;54058;52.010;5.546;2023-07-02T02:28:34;8.95;;;3.97;;
67140;SDS011;54058;52.010;5.546;2023-07-02T02:30:59;12.57;;;4.47;;
67140;SDS011;54058;52.010;5.546;2023-07-02T02:33:25;10.45;;;4.40;;
67140;SDS011;54058;52.010;5.546;2023-07-02T02:35:51;10.85;;;4.63;;
67140;SDS011;54058;52.010;5.546;2023-07-02T02:38:17;8.98;;;3.85;;
67140;SDS011;54058;52.010;5.546;2023-07-02T02:40:42;11.68;;;4.30;;
67140;SDS011;54058;52.010;5.546;2023-07-02T02:43:08;6.38;;;3.70;;
67140;SDS011;54058;52.010;5.546;2023-07-02T02:45:34;9.32;;;4.07;;
67140;SDS011;54058;52.010;5.546;2023-07-02T02:47:59;7.70;;;3.60;;
67140;SDS011;54058;52.010;5.546;2023-07-02T02:50:25;9.05;;;4.45;;
67140;SDS011;54058;52.010;5.546;2023-07-02T02:52:50;12.55;;;4.47;;
67140;SDS011;54058;52.010;5.546;2023-07-02T02:55:16;7.93;;;4.10;;
67140;SDS011;54058;52.010;5.546;2023-07-02T02:57:42;8.95;;;3.95;;
67140;SDS011;54058;52.010;5.546;2023-07-02T03:00:08;9.82;;;4.35;;
67140;SDS011;54058;52.010;5.546;2023-07-02T03:02:34;7.97;;;4.03;;
67140;SDS011;54058;52.010;5.546;2023-07-02T03:05:01;9.47;;;3.87;;
67140;SDS011;54058;52.010;5.546;2023-07-02T03:07:27;12.63;;;4.22;;
67140;SDS011;54058;52.010;5.546;2023-07-02T03:09:53;12.20;;;4.80;;
67140;SDS011;54058;52.010;5.546;2023-07-02T03:12:21;19.35;;;4.90;;
67140;SDS011;54058;52.010;5.546;2023-07-02T03:14:47;17.23;;;4.55;;
67140;SDS011;54058;52.010;5.546;2023-07-02T03:17:18;9.52;;;3.40;;
67140;SDS011;54058;52.010;5.546;2023-07-02T03:19:44;9.95;;;4.80;;
67140;SDS011;54058;52.010;5.546;2023-07-02T03:22:09;11.95;;;4.13;;
67140;SDS011;54058;52.010;5.546;2023-07-02T03:24:35;13.07;;;4.72;;
67140;SDS011;54058;52.010;5.546;2023-07-02T03:27:01;12.90;;;5.18;;
67140;SDS011;54058;52.010;5.546;2023-07-02T03:29:26;15.88;;;5.40;;
67140;SDS011;54058;52.010;5.546;2023-07-02T03:31:52;13.10;;;5.65;;
67140;SDS011;54058;52.010;5.546;2023-07-02T03:34:17;14.82;;;4.60;;
67140;SDS011;54058;52.010;5.546;2023-07-02T03:36:43;11.27;;;4.45;;
67140;SDS011;54058;52.010;5.546;2023-07-02T03:39:09;8.57;;;4.45;;
67140;SDS011;54058;52.010;5.546;2023-07-02T03:41:35;10.43;;;4.78;;
67140;SDS011;54058;52.010;5.546;2023-07-02T03:44:01;10.85;;;4.78;;
67140;SDS011;54058;52.010;5.546;2023-07-02T03:46:27;12.07;;;5.03;;
67140;SDS011;54058;52.010;5.546;2023-07-02T03:48:52;10.70;;;4.25;;
67140;SDS011;54058;52.010;5.546;2023-07-02T03:51:18;20.38;;;5.53;;
67140;SDS011;54058;52.010;5.546;2023-07-02T03:53:43;15.18;;;4.72;;
67140;SDS011;54058;52.010;5.546;2023-07-02T03:56:09;14.57;;;4.75;;
67140;SDS011;54058;52.010;5.546;2023-07-02T03:58:35;13.30;;;5.15;;
67140;SDS011;54058;52.010;5.546;2023-07-02T04:01:00;12.68;;;5.00;;
67140;SDS011;54058;52.010;5.546;2023-07-02T04:03:26;12.82;;;5.20;;
67140;SDS011;54058;52.010;5.546;2023-07-02T04:05:52;16.30;;;5.00;;
67140;SDS011;54058;52.010;5.546;2023-07-02T04:08:17;11.82;;;4.55;;
67140;SDS011;54058;52.010;5.546;2023-07-02T04:10:45;13.40;;;5.18;;
67140;SDS011;54058;52.010;5.546;2023-07-02T04:13:11;8.93;;;4.60;;
67140;SDS011;54058;52.010;5.546;2023-07-02T04:15:40;14.55;;;5.78;;
67140;SDS011;54058;52.010;5.546;2023-07-02T04:18:07;9.73;;;4.22;;
67140;SDS011;54058;52.010;5.546;2023-07-02T04:20:33;14.10;;;5.30;;
67140;SDS011;54058;52.010;5.546;2023-07-02T04:22:59;9.30;;;4.57;;
67140;SDS011;54058;52.010;5.546;2023-07-02T04:25:24;12.50;;;4.93;;
67140;SDS011;54058;52.010;5.546;2023-07-02T04:27:50;19.50;;;4.63;;
67140;SDS011;54058;52.010;5.546;2023-07-02T04:30:21;14.48;;;5.18;;
67140;SDS011;54058;52.010;5.546;2023-07-02T04:32:47;18.55;;;5.65;;
67140;SDS011;54058;52.010;5.546;2023-07-02T04:35:12;20.25;;;5.63;;
67140;SDS011;54058;52.010;5.546;2023-07-02T04:37:38;19.33;;;5.95;;
67140;SDS011;54058;52.010;5.546;2023-07-02T04:40:04;16.13;;;5.28;;
67140;SDS011;54058;52.010;5.546;2023-07-02T04:42:37;12.80;;;5.00;;
67140;SDS011;54058;52.010;5.546;2023-07-02T04:45:07;15.73;;;5.75;;
67140;SDS011;54058;52.010;5.546;2023-07-02T04:47:33;23.13;;;5.53;;
67140;SDS011;54058;52.010;5.546;2023-07-02T04:50:00;16.58;;;6.47;;
67140;SDS011;54058;52.010;5.546;2023-07-02T04:52:26;16.55;;;5.13;;
67140;SDS011;54058;52.010;5.546;2023-07-02T04:54:51;14.50;;;5.70;;
67140;SDS011;54058;52.010;5.546;2023-07-02T04:57:17;20.80;;;6.23;;
67140;SDS011;54058;52.010;5.546;2023-07-02T04:59:43;20.73;;;6.37;;
67140;SDS011;54058;52.010;5.546;2023-07-02T05:02:09;11.47;;;5.23;;
67140;SDS011;54058;52.010;5.546;2023-07-02T05:04:35;19.43;;;6.90;;
67140;SDS011;54058;52.010;5.546;2023-07-02T05:07:02;20.40;;;6.07;;
67140;SDS011;54058;52.010;5.546;2023-07-02T05:09:29;24.67;;;6.75;;
67140;SDS011;54058;52.010;5.546;2023-07-02T05:11:55;19.07;;;5.63;;
67140;SDS011;54058;52.010;5.546;2023-07-02T05:14:20;15.07;;;5.33;;
67140;SDS011;54058;52.010;5.546;2023-07-02T05:16:47;14.90;;;5.43;;
67140;SDS011;54058;52.010;5.546;2023-07-02T05:19:13;19.93;;;5.87;;
67140;SDS011;54058;52.010;5.546;2023-07-02T05:21:39;11.07;;;4.82;;
67140;SDS011;54058;52.010;5.546;2023-07-02T05:24:05;18.33;;;5.80;;
67140;SDS011;54058;52.010;5.546;2023-07-02T05:26:31;17.60;;;5.77;;
67140;SDS011;54058;52.010;5.546;2023-07-02T05:28:58;22.92;;;6.70;;
67140;SDS011;54058;52.010;5.546;2023-07-02T05:31:23;21.23;;;6.20;;
67140;SDS011;54058;52.010;5.546;2023-07-02T05:33:49;22.25;;;6.80;;
67140;SDS011;54058;52.010;5.546;2023-07-02T05:36:15;18.13;;;5.77;;
67140;SDS011;54058;52.010;5.546;2023-07-02T05:38:41;20.53;;;6.13;;
67140;SDS011;54058;52.010;5.546;2023-07-02T05:41:06;17.70;;;5.97;;
67140;SDS011;54058;52.010;5.546;2023-07-02T05:43:32;16.57;;;5.80;;
67140;SDS011;54058;52.010;5.546;2023-07-02T05:45:58;21.55;;;5.82;;
67140;SDS011;54058;52.010;5.546;2023-07-02T05:48:27;19.23;;;6.65;;
67140;SDS011;54058;52.010;5.546;2023-07-02T05:50:54;17.10;;;6.00;;
67140;SDS011;54058;52.010;5.546;2023-07-02T05:53:21;23.83;;;6.32;;
67140;SDS011;54058;52.010;5.546;2023-07-02T05:55:47;18.17;;;6.33;;
67140;SDS011;54058;52.010;5.546;2023-07-02T05:58:13;22.08;;;6.50;;
67140;SDS011;54058;52.010;5.546;2023-07-02T06:00:38;20.07;;;6.13;;
67140;SDS011;54058;52.010;5.546;2023-07-02T06:03:06;18.60;;;5.85;;
67140;SDS011;54058;52.010;5.546;2023-07-02T06:05:32;13.10;;;5.27;;
67140;SDS011;54058;52.010;5.546;2023-07-02T06:07:58;18.43;;;6.07;;
67140;SDS011;54058;52.010;5.546;2023-07-02T06:10:23;20.80;;;6.87;;
67140;SDS011;54058;52.010;5.546;2023-07-02T06:12:49;17.43;;;5.63;;
67140;SDS011;54058;52.010;5.546;2023-07-02T06:15:14;14.93;;;5.40;;
67140;SDS011;54058;52.010;5.546;2023-07-02T06:17:40;14.97;;;5.47;;
67140;SDS011;54058;52.010;5.546;2023-07-02T06:20:06;13.30;;;5.10;;
67140;SDS011;54058;52.010;5.546;2023-07-02T06:22:32;16.92;;;6.05;;
67140;SDS011;54058;52.010;5.546;2023-07-02T06:24:59;12.10;;;5.38;;
67140;SDS011;54058;52.010;5.546;2023-07-02T06:27:26;16.90;;;5.57;;
67140;SDS011;54058;52.010;5.546;2023-07-02T06:29:52;22.02;;;5.97;;
67140;SDS011;54058;52.010;5.546;2023-07-02T06:32:17;21.00;;;5.60;;
67140;SDS011;54058;52.010;5.546;2023-07-02T06:34:43;18.55;;;6.13;;
67140;SDS011;54058;52.010;5.546;2023-07-02T06:37:10;16.70;;;5.72;;
67140;SDS011;54058;52.010;5.546;2023-07-02T06:39:35;15.67;;;5.37;;
67140;SDS011;54058;52.010;5.546;2023-07-02T06:42:01;15.80;;;5.53;;
67140;SDS011;54058;52.010;5.546;2023-07-02T06:44:27;15.07;;;5.90;;
67140;SDS011;54058;52.010;5.546;2023-07-02T06:46:52;16.13;;;5.67;;
67140;SDS011;54058;52.010;5.546;2023-07-02T06:49:18;20.87;;;6.10;;
67140;SDS011;54058;52.010;5.546;2023-07-02T06:51:44;17.07;;;5.80;;
67140;SDS011;54058;52.010;5.546;2023-07-02T06:54:10;16.47;;;6.57;;
67140;SDS011;54058;52.010;5.546;2023-07-02T06:56:36;15.32;;;4.82;;
67140;SDS011;54058;52.010;5.546;2023-07-02T06:59:01;14.77;;;5.07;;
67140;SDS011;54058;52.010;5.546;2023-07-02T07:01:27;13.35;;;4.82;;
67140;SDS011;54058;52.010;5.546;2023-07-02T07:03:53;14.60;;;5.27;;
67140;SDS011;54058;52.010;5.546;2023-07-02T07:06:18;17.60;;;5.63;;
67140;SDS011;54058;52.010;5.546;2023-07-02T07:08:45;18.10;;;5.07;;
67140;SDS011;54058;52.010;5.546;2023-07-02T07:11:10;11.70;;;5.23;;
67140;SDS011;54058;52.010;5.546;2023-07-02T07:13:36;17.13;;;5.87;;
67140;SDS011;54058;52.010;5.546;2023-07-02T07:16:01;14.97;;;5.17;;
67140;SDS011;54058;52.010;5.546;2023-07-02T07:18:27;16.60;;;4.77;;
67140;SDS011;54058;52.010;5.546;2023-07-02T07:20:53;13.80;;;5.10;;
67140;SDS011;54058;52.010;5.546;2023-07-02T07:23:18;14.77;;;5.03;;
67140;SDS011;54058;52.010;5.546;2023-07-02T07:25:44;15.27;;;5.00;;
67140;SDS011;54058;52.010;5.546;2023-07-02T07:28:10;11.98;;;4.95;;
67140;SDS011;54058;52.010;5.546;2023-07-02T07:30:42;13.45;;;4.80;;
67140;SDS011;54058;52.010;5.546;2023-07-02T07:33:08;14.32;;;4.80;;
67140;SDS011;54058;52.010;5.546;2023-07-02T07:35:35;13.48;;;4.85;;
67140;SDS011;54058;52.010;5.546;2023-07-02T07:38:00;14.53;;;4.83;;
67140;SDS011;54058;52.010;5.546;2023-07-02T07:40:26;11.50;;;4.20;;
67140;SDS011;54058;52.010;5.546;2023-07-02T07:42:51;9.50;;;4.13;;
67140;SDS011;54058;52.010;5.546;2023-07-02T07:45:17;11.30;;;4.60;;
67140;SDS011;54058;52.010;5.546;2023-07-02T07:47:43;12.80;;;4.67;;
67140;SDS011;54058;52.010;5.546;2023-07-02T07:50:08;11.13;;;4.00;;
67140;SDS011;54058;52.010;5.546;2023-07-02T07:52:37;13.70;;;4.60;;
67140;SDS011;54058;52.010;5.546;2023-07-02T07:57:29;20.27;;;4.40;;
67140;SDS011;54058;52.010;5.546;2023-07-02T07:59:55;11.13;;;4.43;;
67140;SDS011;54058;52.010;5.546;2023-07-02T08:02:20;14.03;;;4.60;;
67140;SDS011;54058;52.010;5.546;2023-07-02T08:04:48;12.60;;;4.57;;
67140;SDS011;54058;52.010;5.546;2023-07-02T08:07:13;11.00;;;4.25;;
67140;SDS011;54058;52.010;5.546;2023-07-02T08:09:39;10.45;;;4.18;;
67140;SDS011;54058;52.010;5.546;2023-07-02T08:12:05;13.63;;;4.73;;
67140;SDS011;54058;52.010;5.546;2023-07-02T08:14:31;11.57;;;3.95;;
67140;SDS011;54058;52.010;5.546;2023-07-02T08:16:57;12.53;;;4.40;;
67140;SDS011;54058;52.010;5.546;2023-07-02T08:19:22;13.93;;;4.00;;
67140;SDS011;54058;52.010;5.546;2023-07-02T08:21:48;7.73;;;3.67;;
67140;SDS011;54058;52.010;5.546;2023-07-02T08:24:14;11.93;;;4.07;;
67140;SDS011;54058;52.010;5.546;2023-07-02T08:26:39;11.07;;;3.90;;
67140;SDS011;54058;52.010;5.546;2023-07-02T08:29:05;8.77;;;4.33;;
67140;SDS011;54058;52.010;5.546;2023-07-02T08:31:30;11.23;;;4.40;;
67140;SDS011;54058;52.010;5.546;2023-07-02T08:33:56;10.90;;;4.35;;
67140;SDS011;54058;52.010;5.546;2023-07-02T08:36:22;10.77;;;4.72;;
67140;SDS011;54058;52.010;5.546;2023-07-02T08:38:47;13.10;;;4.20;;
67140;SDS011;54058;52.010;5.546;2023-07-02T08:41:13;11.03;;;4.30;;
67140;SDS011;54058;52.010;5.546;2023-07-02T08:43:39;14.00;;;4.60;;
67140;SDS011;54058;52.010;5.546;2023-07-02T08:46:05;10.77;;;4.45;;
67140;SDS011;54058;52.010;5.546;2023-07-02T08:48:32;11.88;;;4.43;;
67140;SDS011;54058;52.010;5.546;2023-07-02T08:50:59;16.98;;;4.85;;
67140;SDS011;54058;52.010;5.546;2023-07-02T08:53:25;8.47;;;4.07;;
67140;SDS011;54058;52.010;5.546;2023-07-02T08:55:55;10.93;;;4.28;;
67140;SDS011;54058;52.010;5.546;2023-07-02T08:58:24;11.52;;;4.13;;
67140;SDS011;54058;52.010;5.546;2023-07-02T09:06:02;12.88;;;4.32;;
67140;SDS011;54058;52.010;5.546;2023-07-02T09:08:31;13.82;;;4.68;;
67140;SDS011;54058;52.010;5.546;2023-07-02T09:11:07;14.85;;;4.88;;
67140;SDS011;54058;52.010;5.546;2023-07-02T09:13:47;12.80;;;3.97;;
67140;SDS011;54058;52.010;5.546;2023-07-02T09:16:47;11.10;;;3.92;;
67140;SDS011;54058;52.010;5.546;2023-07-02T09:19:07;6.40;;;3.20;;
67140;SDS011;54058;52.010;5.546;2023-07-02T09:21:48;12.90;;;3.88;;
67140;SDS011;54058;52.010;5.546;2023-07-02T09:24:18;8.40;;;3.92;;
67140;SDS011;54058;52.010;5.546;2023-07-02T09:26:49;9.38;;;3.63;;
67140;SDS011;54058;52.010;5.546;2023-07-02T09:29:21;6.95;;;3.58;;
67140;SDS011;54058;52.010;5.546;2023-07-02T09:32:05;7.90;;;3.60;;
67140;SDS011;54058;52.010;5.546;2023-07-02T09:34:37;8.80;;;3.90;;
67140;SDS011;54058;52.010;5.546;2023-07-02T09:37:05;6.50;;;3.15;;
67140;SDS011;54058;52.010;5.546;2023-07-02T09:42:01;8.73;;;3.70;;
67140;SDS011;54058;52.010;5.546;2023-07-02T09:44:28;9.73;;;3.00;;
67140;SDS011;54058;52.010;5.546;2023-07-02T09:46:58;7.68;;;2.85;;
67140;SDS011;54058;52.010;5.546;2023-07-02T09:50:11;7.95;;;3.00;;
67140;SDS011;54058;52.010;5.546;2023-07-02T09:52:24;9.20;;;3.30;;
67140;SDS011;54058;52.010;5.546;2023-07-02T09:54:52;5.70;;;2.63;;
67140;SDS011;54058;52.010;5.546;2023-07-02T09:57:18;8.57;;;3.67;;
67140;SDS011;54058;52.010;5.546;2023-07-02T09:59:43;7.83;;;3.03;;
67140;SDS011;54058;52.010;5.546;2023-07-02T10:02:09;6.25;;;2.90;;
67140;SDS011;54058;52.010;5.546;2023-07-02T10:04:42;5.88;;;2.90;;
67140;SDS011;54058;52.010;5.546;2023-07-02T10:09:39;5.88;;;2.55;;
67140;SDS011;54058;52.010;5.546;2023-07-02T10:15:10;10.38;;;3.28;;
67140;SDS011;54058;52.010;5.546;2023-07-02T10:17:36;8.70;;;2.80;;
67140;SDS011;54058;52.010;5.546;2023-07-02T10:20:03;4.80;;;2.72;;
67140;SDS011;54058;52.010;5.546;2023-07-02T10:22:45;3.63;;;2.35;;
67140;SDS011;54058;52.010;5.546;2023-07-02T10:25:23;8.02;;;3.08;;
67140;SDS011;54058;52.010;5.546;2023-07-02T10:27:53;5.13;;;2.67;;
67140;SDS011;54058;52.010;5.546;2023-07-02T10:30:18;7.50;;;3.13;;
67140;SDS011;54058;52.010;5.546;2023-07-02T10:35:32;3.35;;;2.47;;
67140;SDS011;54058;52.010;5.546;2023-07-02T10:37:59;7.32;;;2.78;;
67140;SDS011;54058;52.010;5.546;2023-07-02T10:40:25;7.33;;;3.20;;
67140;SDS011;54058;52.010;5.546;2023-07-02T10:42:51;6.25;;;2.30;;
67140;SDS011;54058;52.010;5.546;2023-07-02T10:45:18;8.77;;;2.47;;
67140;SDS011;54058;52.010;5.546;2023-07-02T10:47:44;4.78;;;2.70;;
67140;SDS011;54058;52.010;5.546;2023-07-02T10:52:44;9.05;;;2.70;;
67140;SDS011;54058;52.010;5.546;2023-07-02T10:55:10;4.35;;;2.40;;
67140;SDS011;54058;52.010;5.546;2023-07-02T10:57:40;4.18;;;2.50;;
67140;SDS011;54058;52.010;5.546;2023-07-02T11:00:06;6.20;;;2.60;;
67140;SDS011;54058;52.010;5.546;2023-07-02T11:04:59;15.98;;;2.58;;
67140;SDS011;54058;52.010;5.546;2023-07-02T11:07:25;5.32;;;2.25;;
67140;SDS011;54058;52.010;5.546;2023-07-02T11:09:51;5.07;;;2.07;;
67140;SDS011;54058;52.010;5.546;2023-07-02T11:12:17;5.85;;;2.47;;
67140;SDS011;54058;52.010;5.546;2023-07-02T11:14:42;4.60;;;2.67;;
67140;SDS011;54058;52.010;5.546;2023-07-02T11:17:08;8.17;;;2.93;;
67140;SDS011;54058;52.010;5.546;2023-07-02T11:19:34;4.67;;;2.73;;
67140;SDS011;54058;52.010;5.546;2023-07-02T11:22:00;3.78;;;2.50;;
67140;SDS011;54058;52.010;5.546;2023-07-02T11:24:28;8.35;;;3.13;;
67140;SDS011;54058;52.010;5.546;2023-07-02T11:26:57;7.78;;;2.70;;
67140;SDS011;54058;52.010;5.546;2023-07-02T11:29:23;6.07;;;3.30;;
67140;SDS011;54058;52.010;5.546;2023-07-02T11:31:49;6.82;;;2.65;;
67140;SDS011;54058;52.010;5.546;2023-07-02T11:34:15;5.37;;;2.33;;
67140;SDS011;54058;52.010;5.546;2023-07-02T11:36:41;5.47;;;2.70;;
67140;SDS011;54058;52.010;5.546;2023-07-02T11:39:07;14.57;;;2.65;;
67140;SDS011;54058;52.010;5.546;2023-07-02T11:41:37;8.53;;;2.90;;
67140;SDS011;54058;52.010;5.546;2023-07-02T11:44:06;6.38;;;2.55;;
67140;SDS011;54058;52.010;5.546;2023-07-02T11:46:32;7.63;;;2.50;;
67140;SDS011;54058;52.010;5.546;2023-07-02T11:49:02;4.57;;;2.40;;
67140;SDS011;54058;52.010;5.546;2023-07-02T11:51:33;6.75;;;2.40;;
67140;SDS011;54058;52.010;5.546;2023-07-02T11:54:03;5.25;;;2.50;;
67140;SDS011;54058;52.010;5.546;2023-07-02T11:56:29;4.15;;;2.67;;
67140;SDS011;54058;52.010;5.546;2023-07-02T11:58:55;7.18;;;2.75;;
67140;SDS011;54058;52.010;5.546;2023-07-02T12:01:21;3.83;;;2.40;;
67140;SDS011;54058;52.010;5.546;2023-07-02T12:03:47;6.67;;;2.97;;
67140;SDS011;54058;52.010;5.546;2023-07-02T12:06:12;6.05;;;3.22;;
67140;SDS011;54058;52.010;5.546;2023-07-02T12:08:38;5.17;;;2.90;;
67140;SDS011;54058;52.010;5.546;2023-07-02T12:11:04;6.63;;;2.60;;
67140;SDS011;54058;52.010;5.546;2023-07-02T12:13:30;7.33;;;2.77;;
67140;SDS011;54058;52.010;5.546;2023-07-02T12:15:55;6.63;;;2.93;;
67140;SDS011;54058;52.010;5.546;2023-07-02T12:18:24;5.15;;;2.90;;
67140;SDS011;54058;52.010;5.546;2023-07-02T12:20:50;7.57;;;2.80;;
67140;SDS011;54058;52.010;5.546;2023-07-02T12:23:16;6.50;;;3.40;;
67140;SDS011;54058;52.010;5.546;2023-07-02T12:25:42;6.28;;;2.58;;
67140;SDS011;54058;52.010;5.546;2023-07-02T12:28:07;6.18;;;2.72;;
67140;SDS011;54058;52.010;5.546;2023-07-02T12:30:33;4.03;;;2.60;;
67140;SDS011;54058;52.010;5.546;2023-07-02T12:32:59;6.13;;;3.00;;
67140;SDS011;54058;52.010;5.546;2023-07-02T12:35:24;5.53;;;2.53;;
67140;SDS011;54058;52.010;5.546;2023-07-02T12:37:52;4.07;;;2.53;;
67140;SDS011;54058;52.010;5.546;2023-07-02T12:40:21;7.90;;;3.05;;
67140;SDS011;54058;52.010;5.546;2023-07-02T12:42:47;7.68;;;3.15;;
67140;SDS011;54058;52.010;5.546;2023-07-02T12:45:14;5.10;;;2.80;;
67140;SDS011;54058;52.010;5.546;2023-07-02T12:47:41;7.53;;;2.88;;
67140;SDS011;54058;52.010;5.546;2023-07-02T12:52:33;4.47;;;2.60;;
67140;SDS011;54058;52.010;5.546;2023-07-02T12:54:59;4.80;;;2.77;;
67140;SDS011;54058;52.010;5.546;2023-07-02T12:57:25;5.63;;;2.95;;
67140;SDS011;54058;52.010;5.546;2023-07-02T12:59:54;9.38;;;2.97;;
67140;SDS011;54058;52.010;5.546;2023-07-02T13:02:21;4.88;;;2.70;;
67140;SDS011;54058;52.010;5.546;2023-07-02T13:04:47;5.70;;;2.78;;
67140;SDS011;54058;52.010;5.546;2023-07-02T13:07:13;6.97;;;3.00;;
67140;SDS011;54058;52.010;5.546;2023-07-02T13:09:39;6.63;;;2.77;;
67140;SDS011;54058;52.010;5.546;2023-07-02T13:12:05;5.90;;;2.77;;
67140;SDS011;54058;52.010;5.546;2023-07-02T13:14:33;9.63;;;2.50;;
67140;SDS011;54058;52.010;5.546;2023-07-02T13:17:00;5.25;;;2.88;;
67140;SDS011;54058;52.010;5.546;2023-07-02T13:19:30;8.32;;;3.70;;
67140;SDS011;54058;52.010;5.546;2023-07-02T13:21:56;11.45;;;3.75;;
67140;SDS011;54058;52.010;5.546;2023-07-02T13:24:21;9.67;;;3.63;;
67140;SDS011;54058;52.010;5.546;2023-07-02T13:26:47;5.93;;;3.03;;
67140;SDS011;54058;52.010;5.546;2023-07-02T13:29:13;9.37;;;3.10;;
67140;SDS011;54058;52.010;5.546;2023-07-02T13:31:39;6.00;;;2.88;;
67140;SDS011;54058;52.010;5.546;2023-07-02T13:34:04;8.47;;;3.27;;
67140;SDS011;54058;52.010;5.546;2023-07-02T13:36:30;9.70;;;3.17;;
67140;SDS011;54058;52.010;5.546;2023-07-02T13:38:56;5.17;;;2.70;;
67140;SDS011;54058;52.010;5.546;2023-07-02T13:41:21;9.87;;;3.37;;
67140;SDS011;54058;52.010;5.546;2023-07-02T13:43:47;7.03;;;3.37;;
67140;SDS011;54058;52.010;5.546;2023-07-02T13:46:13;8.50;;;3.50;;
67140;SDS011;54058;52.010;5.546;2023-07-02T13:48:39;8.40;;;2.85;;
67140;SDS011;54058;52.010;5.546;2023-07-02T13:51:05;8.00;;;3.20;;
67140;SDS011;54058;52.010;5.546;2023-07-02T13:53:33;10.77;;;3.40;;
67140;SDS011;54058;52.010;5.546;2023-07-02T13:55:58;6.68;;;3.20;;
67140;SDS011;54058;52.010;5.546;2023-07-02T14:01:11;7.93;;;2.97;;
67140;SDS011;54058;52.010;5.546;2023-07-02T14:03:37;7.20;;;2.97;;
67140;SDS011;54058;52.010;5.546;2023-07-02T14:06:03;7.32;;;3.15;;
67140;SDS011;54058;52.010;5.546;2023-07-02T14:08:31;8.07;;;3.10;;
67140;SDS011;54058;52.010;5.546;2023-07-02T14:10:59;8.60;;;3.05;;
67140;SDS011;54058;52.010;5.546;2023-07-02T14:13:25;12.23;;;3.40;;
67140;SDS011;54058;52.010;5.546;2023-07-02T14:15:51;7.27;;;3.37;;
67140;SDS011;54058;52.010;5.546;2023-07-02T14:18:16;5.77;;;2.73;;
67140;SDS011;54058;52.010;5.546;2023-07-02T14:20:42;7.60;;;3.30;;
67140;SDS011;54058;52.010;5.546;2023-07-02T14:23:07;8.73;;;3.13;;
67140;SDS011;54058;52.010;5.546;2023-07-02T14:25:34;6.32;;;3.30;;
67140;SDS011;54058;52.010;5.546;2023-07-02T14:28:00;9.13;;;3.27;;
67140;SDS011;54058;52.010;5.546;2023-07-02T14:30:28;8.57;;;3.30;;
67140;SDS011;54058;52.010;5.546;2023-07-02T14:32:54;8.23;;;3.25;;
67140;SDS011;54058;52.010;5.546;2023-07-02T14:35:19;8.00;;;3.17;;
67140;SDS011;54058;52.010;5.546;2023-07-02T14:37:50;10.95;;;3.42;;
67140;SDS011;54058;52.010;5.546;2023-07-02T14:40:16;7.33;;;3.80;;
67140;SDS011;54058;52.010;5.546;2023-07-02T14:42:42;9.70;;;4.00;;
67140;SDS011;54058;52.010;5.546;2023-07-02T14:45:08;10.07;;;3.40;;
67140;SDS011;54058;52.010;5.546;2023-07-02T14:47:34;10.93;;;3.08;;
67140;SDS011;54058;52.010;5.546;2023-07-02T14:50:00;9.48;;;3.85;;
67140;SDS011;54058;52.010;5.546;2023-07-02T14:52:26;7.27;;;3.63;;
67140;SDS011;54058;52.010;5.546;2023-07-02T14:54:52;6.70;;;2.90;;
67140;SDS011;54058;52.010;5.546;2023-07-02T14:57:18;9.90;;;3.42;;
67140;SDS011;54058;52.010;5.546;2023-07-02T14:59:44;7.05;;;3.30;;
67140;SDS011;54058;52.010;5.546;2023-07-02T15:02:12;8.73;;;3.88;;
67140;SDS011;54058;52.010;5.546;2023-07-02T15:04:38;8.45;;;3.45;;
67140;SDS011;54058;52.010;5.546;2023-07-02T15:07:04;6.60;;;3.40;;
67140;SDS011;54058;52.010;5.546;2023-07-02T15:09:30;5.83;;;3.20;;